createdAt,value
2022-10-02T00:00:41.109Z,11.34
2022-10-02T00:01:41.165Z,11.35
2022-10-02T00:02:41.076Z,11.35
2022-10-02T00:03:41.069Z,11.36
2022-10-02T00:04:41.099Z,11.36
2022-10-02T00:05:41.028Z,11.37
2022-10-02T00:06:40.998Z,11.37
2022-10-02T00:07:41.018Z,11.37
2022-10-02T00:08:40.979Z,11.37
2022-10-02T00:09:40.961Z,11.37
2022-10-02T00:10:40.958Z,11.37
2022-10-02T00:11:40.948Z,11.38
2022-10-02T00:12:40.921Z,11.38
2022-10-02T00:13:40.903Z,11.39
2022-10-02T00:14:40.894Z,11.39
2022-10-02T00:15:40.882Z,11.39
2022-10-02T00:16:41.043Z,11.40
2022-10-02T00:17:40.853Z,11.40
2022-10-02T00:18:40.859Z,11.40
2022-10-02T00:19:40.832Z,11.41
2022-10-02T00:20:40.825Z,11.41
2022-10-02T00:21:40.793Z,11.41
2022-10-02T00:22:40.781Z,11.41
2022-10-02T00:23:40.763Z,11.42
2022-10-02T00:24:40.758Z,11.42
2022-10-02T00:25:40.756Z,11.42
2022-10-02T00:26:40.727Z,11.42
2022-10-02T00:27:40.716Z,11.42
2022-10-02T00:28:40.711Z,11.40
2022-10-02T00:29:49.678Z,11.38
2022-10-02T00:30:40.671Z,11.35
2022-10-02T00:31:40.723Z,11.32
2022-10-02T00:32:40.641Z,11.29
2022-10-02T00:33:40.647Z,11.25
2022-10-02T00:34:40.626Z,11.22
2022-10-02T00:35:40.614Z,11.19
2022-10-02T00:36:40.613Z,11.16
2022-10-02T00:37:40.577Z,11.14
2022-10-02T00:38:40.603Z,11.11
2022-10-02T00:39:42.119Z,11.08
2022-10-02T00:40:40.547Z,11.06
2022-10-02T00:41:40.670Z,11.02
2022-10-02T00:42:40.511Z,10.99
2022-10-02T00:43:40.574Z,10.96
2022-10-02T00:44:40.514Z,10.94
2022-10-02T00:45:40.520Z,10.91
2022-10-02T00:46:40.458Z,10.90
2022-10-02T00:47:40.438Z,10.88
2022-10-02T00:48:40.428Z,10.87
2022-10-02T00:49:40.412Z,10.86
2022-10-02T00:50:40.468Z,10.85
2022-10-02T00:51:40.371Z,10.84
2022-10-02T00:52:40.382Z,10.83
2022-10-02T00:53:40.374Z,10.82
2022-10-02T00:54:40.359Z,10.81
2022-10-02T00:55:40.321Z,10.80
2022-10-02T00:56:40.310Z,10.80
2022-10-02T00:57:40.312Z,10.79
2022-10-02T00:58:40.287Z,10.79
2022-10-02T00:59:40.281Z,10.78
2022-10-02T01:00:40.396Z,10.78
2022-10-02T01:01:40.285Z,10.78
2022-10-02T01:02:40.235Z,10.78
2022-10-02T01:03:40.213Z,10.78
2022-10-02T01:04:40.198Z,10.77
2022-10-02T01:05:40.221Z,10.76
2022-10-02T01:06:40.174Z,10.75
2022-10-02T01:07:40.149Z,10.74
2022-10-02T01:08:40.137Z,10.72
2022-10-02T01:09:40.129Z,10.70
2022-10-02T01:10:40.121Z,10.68
2022-10-02T01:11:40.091Z,10.67
2022-10-02T01:12:40.079Z,10.65
2022-10-02T01:13:40.087Z,10.64
2022-10-02T01:14:40.054Z,10.63
2022-10-02T01:15:40.061Z,10.62
2022-10-02T01:16:40.175Z,10.62
2022-10-02T01:17:40.013Z,10.61
2022-10-02T01:18:40.005Z,10.61
2022-10-02T01:19:39.983Z,10.60
2022-10-02T01:20:39.982Z,10.59
2022-10-02T01:21:39.977Z,10.59
2022-10-02T01:22:40.387Z,10.59
2022-10-02T01:23:39.928Z,10.60
2022-10-02T01:24:39.914Z,10.60
2022-10-02T01:25:39.941Z,10.59
2022-10-02T01:26:39.894Z,10.60
2022-10-02T01:27:39.874Z,10.60
2022-10-02T01:28:39.860Z,10.60
2022-10-02T01:29:39.856Z,10.60
2022-10-02T01:30:39.840Z,10.60
2022-10-02T01:31:39.885Z,10.61
2022-10-02T01:32:39.805Z,10.61
2022-10-02T01:33:39.784Z,10.61
2022-10-02T01:34:39.776Z,10.62
2022-10-02T01:35:39.766Z,10.63
2022-10-02T01:36:39.806Z,10.63
2022-10-02T01:37:39.731Z,10.64
2022-10-02T01:38:39.715Z,10.64
2022-10-02T01:39:39.702Z,10.65
2022-10-02T01:40:39.689Z,10.65
2022-10-02T01:41:39.688Z,10.65
2022-10-02T01:42:39.672Z,10.66
2022-10-02T01:43:39.664Z,10.67
2022-10-02T01:44:39.664Z,10.67
2022-10-02T01:45:39.639Z,10.68
2022-10-02T01:46:39.738Z,10.69
2022-10-02T01:47:39.593Z,10.69
2022-10-02T01:48:39.586Z,10.69
2022-10-02T01:49:39.560Z,10.69
2022-10-02T01:50:39.542Z,10.68
2022-10-02T01:51:39.563Z,10.68
2022-10-02T01:52:39.524Z,10.68
2022-10-02T01:53:39.520Z,10.68
2022-10-02T01:54:39.489Z,10.69
2022-10-02T01:55:39.490Z,10.69
2022-10-02T01:56:39.907Z,10.70
2022-10-02T01:57:39.475Z,10.71
2022-10-02T01:58:39.435Z,10.71
2022-10-02T01:59:39.417Z,10.72
2022-10-02T02:00:39.429Z,10.73
2022-10-02T02:01:39.399Z,10.74
2022-10-02T02:02:39.399Z,10.75
2022-10-02T02:03:39.380Z,10.76
2022-10-02T02:04:39.364Z,10.77
2022-10-02T02:05:39.333Z,10.78
2022-10-02T02:06:39.503Z,10.80
2022-10-02T02:07:39.315Z,10.81
2022-10-02T02:08:39.294Z,10.81
2022-10-02T02:09:39.292Z,10.82
2022-10-02T02:10:39.266Z,10.83
2022-10-02T02:11:39.280Z,10.84
2022-10-02T02:12:39.269Z,10.85
2022-10-02T02:13:39.223Z,10.86
2022-10-02T02:14:39.208Z,10.87
2022-10-02T02:15:39.198Z,10.87
2022-10-02T02:16:39.748Z,10.88
2022-10-02T02:17:39.181Z,10.88
2022-10-02T02:18:39.194Z,10.89
2022-10-02T02:19:39.165Z,10.89
2022-10-02T02:20:39.138Z,10.90
2022-10-02T02:21:39.140Z,10.91
2022-10-02T02:22:39.120Z,10.91
2022-10-02T02:23:39.082Z,10.92
2022-10-02T02:24:39.079Z,10.92
2022-10-02T02:25:39.068Z,10.93
2022-10-02T02:26:39.409Z,10.94
2022-10-02T02:27:39.045Z,10.94
2022-10-02T02:28:39.031Z,10.95
2022-10-02T02:29:39.005Z,10.96
2022-10-02T02:30:39.001Z,10.96
2022-10-02T02:31:39.092Z,10.97
2022-10-02T02:32:38.975Z,10.98
2022-10-02T02:33:38.956Z,10.98
2022-10-02T02:34:38.944Z,10.99
2022-10-02T02:35:38.938Z,10.99
2022-10-02T02:36:39.252Z,11.00
2022-10-02T02:37:38.899Z,11.00
2022-10-02T02:38:38.920Z,11.01
2022-10-02T02:39:38.875Z,11.01
2022-10-02T02:40:38.867Z,11.02
2022-10-02T02:41:38.849Z,11.02
2022-10-02T02:42:38.858Z,11.02
2022-10-02T02:43:38.840Z,11.02
2022-10-02T02:44:38.832Z,11.03
2022-10-02T02:45:38.929Z,11.03
2022-10-02T02:46:39.095Z,11.04
2022-10-02T02:47:38.782Z,11.04
2022-10-02T02:48:38.765Z,11.05
2022-10-02T02:49:38.752Z,11.05
2022-10-02T02:50:38.729Z,11.06
2022-10-02T02:51:38.720Z,11.06
2022-10-02T02:52:38.711Z,11.06
2022-10-02T02:53:38.738Z,11.06
2022-10-02T02:54:38.678Z,11.06
2022-10-02T02:55:44.188Z,11.07
2022-10-02T02:56:38.901Z,11.07
2022-10-02T02:57:38.629Z,11.07
2022-10-02T02:58:38.630Z,11.07
2022-10-02T02:59:38.604Z,11.08
2022-10-02T03:00:38.648Z,11.08
2022-10-02T03:01:38.584Z,11.08
2022-10-02T03:02:38.566Z,11.09
2022-10-02T03:03:38.559Z,11.09
2022-10-02T03:04:38.539Z,11.10
2022-10-02T03:05:38.522Z,11.11
2022-10-02T03:06:38.904Z,11.12
2022-10-02T03:07:38.513Z,11.12
2022-10-02T03:08:38.487Z,11.13
2022-10-02T03:09:38.482Z,11.13
2022-10-02T03:10:38.459Z,11.13
2022-10-02T03:11:38.437Z,11.13
2022-10-02T03:12:38.428Z,11.14
2022-10-02T03:13:38.430Z,11.14
2022-10-02T03:14:38.407Z,11.14
2022-10-02T03:15:38.438Z,11.14
2022-10-02T03:16:38.854Z,11.14
2022-10-02T03:17:38.361Z,11.15
2022-10-02T03:18:38.374Z,11.15
2022-10-02T03:19:38.372Z,11.15
2022-10-02T03:20:38.336Z,11.15
2022-10-02T03:21:38.315Z,11.15
2022-10-02T03:22:38.299Z,11.15
2022-10-02T03:23:38.291Z,11.15
2022-10-02T03:24:38.300Z,11.15
2022-10-02T03:25:38.264Z,11.15
2022-10-02T03:26:38.542Z,11.15
2022-10-02T03:27:38.232Z,11.16
2022-10-02T03:28:54.948Z,11.16
2022-10-02T03:29:38.206Z,11.16
2022-10-02T03:30:38.186Z,11.16
2022-10-02T03:31:38.244Z,11.16
2022-10-02T03:32:38.155Z,11.17
2022-10-02T03:33:38.140Z,11.17
2022-10-02T03:34:38.136Z,11.17
2022-10-02T03:35:38.121Z,11.18
2022-10-02T03:36:38.488Z,11.18
2022-10-02T03:37:38.084Z,11.18
2022-10-02T03:38:38.074Z,11.18
2022-10-02T03:39:38.062Z,11.18
2022-10-02T03:40:38.044Z,11.18
2022-10-02T03:41:38.033Z,11.19
2022-10-02T03:42:38.017Z,11.19
2022-10-02T03:43:38.002Z,11.18
2022-10-02T03:44:38.005Z,11.18
2022-10-02T03:45:51.035Z,11.18
2022-10-02T03:46:38.285Z,11.18
2022-10-02T03:47:37.946Z,11.18
2022-10-02T03:48:37.935Z,11.18
2022-10-02T03:49:37.961Z,11.18
2022-10-02T03:50:37.914Z,11.18
2022-10-02T03:51:37.917Z,11.18
2022-10-02T03:52:37.908Z,11.19
2022-10-02T03:53:37.868Z,11.19
2022-10-02T03:54:37.883Z,11.19
2022-10-02T03:55:37.837Z,11.19
2022-10-02T03:56:38.149Z,11.19
2022-10-02T03:57:37.809Z,11.19
2022-10-02T03:58:37.807Z,11.20
2022-10-02T03:59:37.854Z,11.20
2022-10-02T04:00:37.788Z,11.20
2022-10-02T04:01:37.836Z,11.20
2022-10-02T04:02:37.740Z,11.20
2022-10-02T04:03:37.768Z,11.21
2022-10-02T04:04:37.750Z,11.21
2022-10-02T04:05:37.701Z,11.21
2022-10-02T04:06:38.025Z,11.22
2022-10-02T04:07:37.695Z,11.22
2022-10-02T04:08:37.695Z,11.22
2022-10-02T04:09:37.678Z,11.22
2022-10-02T04:10:37.666Z,11.22
2022-10-02T04:11:37.636Z,11.22
2022-10-02T04:12:37.638Z,11.22
2022-10-02T04:13:37.597Z,11.22
2022-10-02T04:14:37.596Z,11.22
2022-10-02T04:15:37.585Z,11.23
2022-10-02T04:16:37.897Z,11.23
2022-10-02T04:17:37.609Z,11.23
2022-10-02T04:18:37.575Z,11.23
2022-10-02T04:19:37.516Z,11.23
2022-10-02T04:20:37.515Z,11.23
2022-10-02T04:21:37.486Z,11.23
2022-10-02T04:22:37.483Z,11.23
2022-10-02T04:23:37.449Z,11.23
2022-10-02T04:24:37.458Z,11.23
2022-10-02T04:25:37.433Z,11.23
2022-10-02T04:26:37.825Z,11.23
2022-10-02T04:27:37.401Z,11.23
2022-10-02T04:28:37.388Z,11.23
2022-10-02T04:29:37.395Z,11.23
2022-10-02T04:30:37.400Z,11.24
2022-10-02T04:31:37.432Z,11.24
2022-10-02T04:32:37.344Z,11.24
2022-10-02T04:33:38.520Z,11.24
2022-10-02T04:34:37.309Z,11.24
2022-10-02T04:35:37.307Z,11.24
2022-10-02T04:36:37.536Z,11.25
2022-10-02T04:37:37.284Z,11.25
2022-10-02T04:38:37.260Z,11.25
2022-10-02T04:39:37.236Z,11.26
2022-10-02T04:40:37.295Z,11.26
2022-10-02T04:41:37.236Z,11.26
2022-10-02T04:42:37.211Z,11.27
2022-10-02T04:43:37.227Z,11.27
2022-10-02T04:44:37.170Z,11.28
2022-10-02T04:45:37.210Z,11.28
2022-10-02T04:46:37.489Z,11.28
2022-10-02T04:47:37.153Z,11.29
2022-10-02T04:48:37.126Z,11.29
2022-10-02T04:49:37.166Z,11.29
2022-10-02T04:50:37.101Z,11.29
2022-10-02T04:51:37.092Z,11.29
2022-10-02T04:52:37.074Z,11.29
2022-10-02T04:53:37.074Z,11.30
2022-10-02T04:54:37.065Z,11.30
2022-10-02T04:55:37.046Z,11.30
2022-10-02T04:56:37.311Z,11.30
2022-10-02T04:57:37.027Z,11.31
2022-10-02T04:58:37.007Z,11.31
2022-10-02T04:59:36.987Z,11.31
2022-10-02T05:00:37.010Z,11.31
2022-10-02T05:01:37.027Z,11.32
2022-10-02T05:02:36.948Z,11.32
2022-10-02T05:03:36.932Z,11.32
2022-10-02T05:04:36.916Z,11.32
2022-10-02T05:05:36.916Z,11.32
2022-10-02T05:06:37.193Z,11.33
2022-10-02T05:07:36.879Z,11.33
2022-10-02T05:08:36.927Z,11.33
2022-10-02T05:09:36.844Z,11.33
2022-10-02T05:10:36.827Z,11.33
2022-10-02T05:11:36.851Z,11.33
2022-10-02T05:12:36.814Z,11.33
2022-10-02T05:13:36.834Z,11.33
2022-10-02T05:14:36.818Z,11.33
2022-10-02T05:15:36.797Z,11.33
2022-10-02T05:16:37.120Z,11.33
2022-10-02T05:17:36.790Z,11.33
2022-10-02T05:18:36.725Z,11.33
2022-10-02T05:19:36.739Z,11.33
2022-10-02T05:20:36.709Z,11.33
2022-10-02T05:21:36.729Z,11.33
2022-10-02T05:22:36.695Z,11.33
2022-10-02T05:23:36.657Z,11.33
2022-10-02T05:24:36.648Z,11.33
2022-10-02T05:25:36.656Z,11.33
2022-10-02T05:26:36.865Z,11.33
2022-10-02T05:27:36.622Z,11.34
2022-10-02T05:28:36.625Z,11.34
2022-10-02T05:29:36.597Z,11.34
2022-10-02T05:30:36.590Z,11.34
2022-10-02T05:31:36.613Z,11.34
2022-10-02T05:32:36.543Z,11.35
2022-10-02T05:33:36.541Z,11.35
2022-10-02T05:34:36.525Z,11.35
2022-10-02T05:35:36.492Z,11.35
2022-10-02T05:36:36.782Z,11.36
2022-10-02T05:37:36.470Z,11.36
2022-10-02T05:38:36.456Z,11.36
2022-10-02T05:39:36.452Z,11.36
2022-10-02T05:40:36.443Z,11.36
2022-10-02T05:41:36.401Z,11.35
2022-10-02T05:42:39.987Z,11.35
2022-10-02T05:43:36.400Z,11.35
2022-10-02T05:44:36.362Z,11.35
2022-10-02T05:45:36.353Z,11.35
2022-10-02T05:46:36.615Z,11.35
2022-10-02T05:47:36.328Z,11.35
2022-10-02T05:48:36.303Z,11.35
2022-10-02T05:49:36.306Z,11.36
2022-10-02T05:50:36.532Z,11.36
2022-10-02T05:51:36.268Z,11.36
2022-10-02T05:52:36.260Z,11.36
2022-10-02T05:53:36.245Z,11.36
2022-10-02T05:54:36.220Z,11.36
2022-10-02T05:55:36.223Z,11.36
2022-10-02T05:56:36.487Z,11.36
2022-10-02T05:57:36.191Z,11.37
2022-10-02T05:58:36.168Z,11.36
2022-10-02T05:59:36.174Z,11.36
2022-10-02T06:00:36.137Z,11.36
2022-10-02T06:01:36.163Z,11.35
2022-10-02T06:02:39.225Z,11.35
2022-10-02T06:03:36.095Z,11.35
2022-10-02T06:04:36.123Z,11.35
2022-10-02T06:05:36.084Z,11.35
2022-10-02T06:06:36.341Z,11.34
2022-10-02T06:07:36.051Z,11.34
2022-10-02T06:08:36.031Z,11.34
2022-10-02T06:09:36.013Z,11.34
2022-10-02T06:10:36.002Z,11.34
2022-10-02T06:11:36.004Z,11.34
2022-10-02T06:12:35.978Z,11.35
2022-10-02T06:13:35.969Z,11.35
2022-10-02T06:14:35.944Z,11.34
2022-10-02T06:15:35.932Z,11.34
2022-10-02T06:16:36.305Z,11.34
2022-10-02T06:17:35.925Z,11.35
2022-10-02T06:18:35.903Z,11.35
2022-10-02T06:19:35.900Z,11.35
2022-10-02T06:20:35.920Z,11.35
2022-10-02T06:21:35.914Z,11.35
2022-10-02T06:22:35.854Z,11.36
2022-10-02T06:23:35.842Z,11.36
2022-10-02T06:24:35.807Z,11.36
2022-10-02T06:25:35.828Z,11.35
2022-10-02T06:26:45.387Z,11.35
2022-10-02T06:27:35.899Z,11.35
2022-10-02T06:28:35.793Z,11.36
2022-10-02T06:29:35.769Z,11.36
2022-10-02T06:30:35.736Z,11.36
2022-10-02T06:31:35.799Z,11.36
2022-10-02T06:32:35.720Z,11.36
2022-10-02T06:33:35.682Z,11.36
2022-10-02T06:34:35.668Z,11.36
2022-10-02T06:35:35.699Z,11.35
2022-10-02T06:36:35.896Z,11.35
2022-10-02T06:37:35.625Z,11.34
2022-10-02T06:38:35.662Z,11.34
2022-10-02T06:39:35.626Z,11.34
2022-10-02T06:40:35.583Z,11.33
2022-10-02T06:41:35.577Z,11.33
2022-10-02T06:42:35.596Z,11.32
2022-10-02T06:43:35.630Z,11.32
2022-10-02T06:44:35.535Z,11.31
2022-10-02T06:45:35.571Z,11.30
2022-10-02T06:46:35.850Z,11.30
2022-10-02T06:47:35.484Z,11.29
2022-10-02T06:48:35.507Z,11.28
2022-10-02T06:49:35.475Z,11.27
2022-10-02T06:52:12.885Z,12.34
2022-10-02T06:53:13.801Z,11.90
2022-10-02T06:54:13.786Z,11.61
2022-10-02T06:55:14.116Z,11.44
2022-10-02T06:56:13.860Z,11.34
2022-10-02T06:57:13.746Z,11.29
2022-10-02T06:58:13.696Z,11.25
2022-10-02T06:59:14.145Z,11.24
2022-10-02T07:00:15.524Z,11.23
2022-10-02T07:01:13.778Z,11.22
2022-10-02T07:02:14.009Z,11.21
2022-10-02T07:03:13.744Z,11.21
2022-10-02T07:04:13.869Z,11.21
2022-10-02T07:05:14.803Z,11.21
2022-10-02T07:06:14.060Z,11.21
2022-10-02T07:07:13.724Z,11.21
2022-10-02T07:08:13.592Z,11.21
2022-10-02T07:09:13.597Z,11.22
2022-10-02T07:10:13.556Z,11.22
2022-10-02T07:11:13.544Z,11.22
2022-10-02T07:12:13.612Z,11.23
2022-10-02T07:13:13.516Z,11.23
2022-10-02T07:14:13.529Z,11.24
2022-10-02T07:15:13.509Z,11.24
2022-10-02T07:16:13.644Z,11.24
2022-10-02T07:18:45.209Z,12.35
2022-10-02T07:23:21.505Z,12.37
2022-10-02T07:24:27.386Z,11.93
2022-10-02T07:25:22.513Z,11.64
2022-10-02T07:29:15.674Z,12.36
2022-10-02T07:30:12.225Z,11.92
2022-10-02T07:31:14.267Z,11.63
2022-10-02T07:32:12.189Z,11.47
2022-10-02T07:33:12.220Z,11.37
2022-10-02T07:34:12.143Z,11.32
2022-10-02T07:35:12.217Z,11.29
2022-10-02T07:36:12.169Z,11.27
2022-10-02T07:58:34.893Z,12.44
2022-10-02T08:05:45.777Z,12.48
2022-10-02T08:06:27.150Z,12.04
2022-10-02T08:07:41.904Z,11.76
2022-10-02T08:18:22.839Z,12.54
2022-10-02T08:19:02.976Z,12.11
2022-10-02T08:21:37.065Z,12.57
2022-10-02T08:22:38.035Z,12.14
2022-10-02T08:23:38.165Z,11.86
2022-10-02T08:24:37.965Z,11.70
2022-10-02T08:25:38.509Z,11.62
2022-10-02T08:26:38.197Z,11.57
2022-10-02T08:27:37.982Z,11.55
2022-10-02T08:28:37.903Z,11.53
2022-10-02T08:29:38.030Z,11.53
2022-10-02T08:30:37.887Z,11.53
2022-10-02T08:31:38.036Z,11.53
2022-10-02T08:32:40.683Z,11.54
2022-10-02T08:33:37.875Z,11.54
2022-10-02T08:34:39.966Z,11.55
2022-10-02T08:35:38.188Z,11.56
2022-10-02T08:36:38.268Z,11.57
2022-10-02T08:40:04.723Z,12.72
2022-10-02T08:42:52.832Z,12.75
2022-10-02T08:43:52.734Z,12.31
2022-10-02T08:44:52.737Z,12.03
2022-10-02T08:45:58.997Z,11.88
2022-10-02T08:46:52.889Z,11.80
2022-10-02T08:47:52.696Z,11.75
2022-10-02T08:48:52.676Z,11.73
2022-10-02T08:49:52.675Z,11.73
2022-10-02T08:50:52.639Z,11.73
2022-10-02T08:51:52.628Z,11.73
2022-10-02T08:52:52.611Z,11.74
2022-10-02T08:53:52.607Z,11.75
2022-10-02T08:54:52.594Z,11.76
2022-10-02T08:55:52.576Z,11.78
2022-10-02T08:56:52.564Z,11.79
2022-10-02T08:57:52.544Z,11.81
2022-10-02T08:58:52.529Z,11.83
2022-10-02T08:59:52.591Z,11.85
2022-10-02T09:00:52.711Z,11.87
2022-10-02T09:01:55.241Z,11.89
2022-10-02T09:02:52.491Z,11.91
2022-10-02T09:03:52.467Z,11.93
2022-10-02T09:04:52.448Z,11.94
2022-10-02T09:05:52.449Z,11.95
2022-10-02T09:06:52.416Z,11.96
2022-10-02T09:07:52.408Z,11.98
2022-10-02T09:08:52.394Z,11.99
2022-10-02T09:09:52.403Z,12.00
2022-10-02T09:10:52.423Z,12.02
2022-10-02T09:11:52.356Z,12.03
2022-10-02T09:12:52.358Z,12.05
2022-10-02T09:13:52.337Z,12.07
2022-10-02T09:14:56.778Z,12.09
2022-10-02T09:15:52.339Z,12.10
2022-10-02T09:16:52.347Z,12.12
2022-10-02T09:17:52.296Z,12.14
2022-10-02T09:18:52.268Z,12.17
2022-10-02T09:19:52.249Z,12.19
2022-10-02T09:20:52.253Z,12.22
2022-10-02T09:21:52.790Z,12.24
2022-10-02T09:22:52.209Z,12.27
2022-10-02T09:23:52.201Z,12.30
2022-10-02T09:24:52.229Z,12.33
2022-10-02T09:25:52.188Z,12.35
2022-10-02T09:26:52.164Z,12.38
2022-10-02T09:27:52.262Z,12.40
2022-10-02T09:28:52.150Z,12.42
2022-10-02T09:29:52.128Z,12.45
2022-10-02T09:30:52.116Z,12.48
2022-10-02T09:31:52.219Z,12.51
2022-10-02T09:32:52.109Z,12.55
2022-10-02T09:33:52.115Z,12.58
2022-10-02T09:34:52.053Z,12.62
2022-10-02T09:35:52.076Z,12.64
2022-10-02T09:36:52.041Z,12.67
2022-10-02T09:37:52.029Z,12.69
2022-10-02T09:38:52.012Z,12.71
2022-10-02T09:39:52.003Z,12.73
2022-10-02T09:40:51.978Z,12.76
2022-10-02T09:41:51.980Z,12.77
2022-10-02T09:42:51.943Z,12.79
2022-10-02T09:43:51.933Z,12.81
2022-10-02T09:44:51.907Z,12.83
2022-10-02T09:45:51.947Z,12.86
2022-10-02T09:46:51.896Z,12.89
2022-10-02T09:47:51.891Z,12.92
2022-10-02T09:48:51.864Z,12.94
2022-10-02T09:49:51.837Z,12.96
2022-10-02T09:50:51.835Z,12.96
2022-10-02T09:51:51.805Z,12.97
2022-10-02T09:52:51.801Z,12.98
2022-10-02T09:53:51.808Z,12.99
2022-10-02T09:54:51.791Z,13.00
2022-10-02T09:55:51.790Z,13.01
2022-10-02T09:56:51.827Z,13.03
2022-10-02T09:57:51.779Z,13.04
2022-10-02T09:58:51.715Z,13.05
2022-10-02T09:59:51.740Z,13.06
2022-10-02T10:00:51.736Z,13.08
2022-10-02T10:01:51.738Z,13.09
2022-10-02T10:02:51.659Z,13.11
2022-10-02T10:03:51.639Z,13.12
2022-10-02T10:05:05.465Z,13.14
2022-10-02T10:05:51.627Z,13.15
2022-10-02T10:06:51.614Z,13.17
2022-10-02T10:07:51.616Z,13.19
2022-10-02T10:08:51.565Z,13.21
2022-10-02T10:09:51.765Z,13.22
2022-10-02T10:10:51.577Z,13.23
2022-10-02T10:11:51.538Z,13.24
2022-10-02T10:12:51.510Z,13.25
2022-10-02T10:13:51.532Z,13.27
2022-10-02T10:14:51.510Z,13.28
2022-10-02T10:15:51.494Z,13.29
2022-10-02T10:16:51.526Z,13.30
2022-10-02T10:17:51.457Z,13.30
2022-10-02T10:18:52.054Z,13.31
2022-10-02T10:19:51.473Z,13.32
2022-10-02T10:20:51.398Z,13.33
2022-10-02T10:21:51.392Z,13.35
2022-10-02T10:22:51.381Z,13.36
2022-10-02T10:23:51.376Z,13.38
2022-10-02T10:24:51.401Z,13.39
2022-10-02T10:25:51.344Z,13.41
2022-10-02T10:26:51.345Z,13.43
2022-10-02T10:27:51.340Z,13.44
2022-10-02T10:28:51.314Z,13.45
2022-10-02T10:29:51.286Z,13.47
2022-10-02T10:30:51.284Z,13.48
2022-10-02T10:31:51.302Z,13.50
2022-10-02T10:32:51.248Z,13.53
2022-10-02T10:33:51.223Z,13.56
2022-10-02T10:34:51.236Z,13.58
2022-10-02T10:35:51.197Z,13.60
2022-10-02T10:36:51.184Z,13.62
2022-10-02T10:37:51.164Z,13.63
2022-10-02T10:38:51.211Z,13.64
2022-10-02T10:39:51.167Z,13.65
2022-10-02T10:40:51.136Z,13.66
2022-10-02T10:41:51.125Z,13.67
2022-10-02T10:43:06.978Z,13.69
2022-10-02T10:43:51.087Z,13.70
2022-10-02T10:44:51.084Z,13.71
2022-10-02T10:45:51.153Z,13.73
2022-10-02T10:46:51.073Z,13.74
2022-10-02T10:47:51.034Z,13.77
2022-10-02T10:48:51.045Z,13.79
2022-10-02T10:49:51.066Z,13.80
2022-10-02T10:50:51.014Z,13.81
2022-10-02T10:51:50.976Z,13.82
2022-10-02T10:52:52.061Z,13.83
2022-10-02T10:53:50.971Z,13.85
2022-10-02T10:54:50.948Z,13.88
2022-10-02T10:55:50.920Z,13.91
2022-10-02T10:56:50.951Z,13.95
2022-10-02T10:57:50.909Z,13.99
2022-10-02T10:58:50.883Z,14.02
2022-10-02T10:59:50.912Z,14.05
2022-10-02T11:00:50.950Z,14.09
2022-10-02T11:01:50.950Z,14.13
2022-10-02T11:02:50.840Z,14.17
2022-10-02T11:03:50.818Z,14.20
2022-10-02T11:04:50.835Z,14.24
2022-10-02T11:05:50.791Z,14.28
2022-10-02T11:06:50.777Z,14.31
2022-10-02T11:07:50.759Z,14.35
2022-10-02T11:08:50.750Z,14.39
2022-10-02T11:09:51.585Z,14.42
2022-10-02T11:10:50.734Z,14.46
2022-10-02T11:11:50.707Z,14.51
2022-10-02T11:12:50.707Z,14.54
2022-10-02T11:13:50.707Z,14.58
2022-10-02T11:14:50.674Z,14.63
2022-10-02T11:15:50.663Z,14.69
2022-10-02T11:16:50.712Z,14.75
2022-10-02T11:17:50.648Z,14.82
2022-10-02T11:18:50.622Z,14.88
2022-10-02T11:19:50.602Z,14.94
2022-10-02T11:20:50.602Z,14.98
2022-10-02T11:21:50.610Z,15.01
2022-10-02T11:22:50.570Z,15.04
2022-10-02T11:23:50.577Z,15.06
2022-10-02T11:24:50.558Z,15.08
2022-10-02T11:25:50.542Z,15.09
2022-10-02T11:26:50.551Z,15.10
2022-10-02T11:27:50.546Z,15.12
2022-10-02T11:28:50.520Z,15.13
2022-10-02T11:29:50.469Z,15.15
2022-10-02T11:30:50.464Z,15.17
2022-10-02T11:31:51.142Z,15.18
2022-10-02T11:32:50.452Z,15.19
2022-10-02T11:33:50.427Z,15.21
2022-10-02T11:34:50.403Z,15.23
2022-10-02T11:35:50.575Z,15.25
2022-10-02T11:36:50.396Z,15.27
2022-10-02T11:37:50.369Z,15.31
2022-10-02T11:38:50.376Z,15.35
2022-10-02T11:39:50.332Z,15.40
2022-10-02T11:40:50.339Z,15.46
2022-10-02T11:41:50.350Z,15.53
2022-10-02T11:42:50.350Z,15.61
2022-10-02T11:43:50.286Z,15.69
2022-10-02T11:44:50.272Z,15.77
2022-10-02T11:45:50.315Z,15.85
2022-10-02T11:46:50.279Z,15.92
2022-10-02T11:47:50.263Z,16.00
2022-10-02T11:48:50.243Z,16.08
2022-10-02T11:49:50.217Z,16.14
2022-10-02T11:50:50.212Z,16.18
2022-10-02T11:51:50.194Z,16.22
2022-10-02T11:52:50.174Z,16.24
2022-10-02T11:53:51.156Z,16.26
2022-10-02T11:54:50.154Z,16.28
2022-10-02T11:55:50.128Z,16.29
2022-10-02T11:56:50.149Z,16.31
2022-10-02T11:57:50.111Z,16.32
2022-10-02T11:58:50.117Z,16.33
2022-10-02T11:59:50.078Z,16.33
2022-10-02T12:00:50.145Z,16.33
2022-10-02T12:01:50.065Z,16.33
2022-10-02T12:02:50.118Z,16.34
2022-10-02T12:03:50.050Z,16.35
2022-10-02T12:04:50.122Z,16.35
2022-10-02T12:05:50.012Z,16.37
2022-10-02T12:06:50.008Z,16.38
2022-10-02T12:07:49.983Z,16.40
2022-10-02T12:08:49.978Z,16.41
2022-10-02T12:09:49.971Z,16.41
2022-10-02T12:10:49.938Z,16.42
2022-10-02T12:11:49.916Z,16.41
2022-10-02T12:12:49.911Z,16.40
2022-10-02T12:13:49.917Z,16.40
2022-10-02T12:14:49.891Z,16.39
2022-10-02T12:15:49.873Z,16.37
2022-10-02T12:16:49.916Z,16.35
2022-10-02T12:17:49.862Z,16.33
2022-10-02T12:18:49.823Z,16.31
2022-10-02T12:19:49.820Z,16.29
2022-10-02T12:20:49.838Z,16.28
2022-10-02T12:21:49.903Z,16.29
2022-10-02T12:22:49.785Z,16.29
2022-10-02T12:23:49.789Z,16.30
2022-10-02T12:24:54.727Z,16.31
2022-10-02T12:25:49.863Z,16.32
2022-10-02T12:26:49.731Z,16.34
2022-10-02T12:27:49.766Z,16.37
2022-10-02T12:28:49.712Z,16.41
2022-10-02T12:29:49.679Z,16.45
2022-10-02T12:30:49.710Z,16.49
2022-10-02T12:31:49.690Z,16.54
2022-10-02T12:32:49.725Z,16.58
2022-10-02T12:33:54.225Z,16.62
2022-10-02T12:34:49.625Z,16.65
2022-10-02T12:35:49.614Z,16.67
2022-10-02T12:36:49.596Z,16.69
2022-10-02T12:37:49.594Z,16.70
2022-10-02T12:38:49.587Z,16.71
2022-10-02T12:39:49.553Z,16.71
2022-10-02T12:40:49.558Z,16.71
2022-10-02T12:41:49.554Z,16.71
2022-10-02T12:42:49.645Z,16.71
2022-10-02T12:43:49.565Z,16.72
2022-10-02T12:44:49.500Z,16.73
2022-10-02T12:45:49.540Z,16.74
2022-10-02T12:46:49.462Z,16.75
2022-10-02T12:47:49.448Z,16.76
2022-10-02T12:48:49.434Z,16.78
2022-10-02T12:49:49.428Z,16.80
2022-10-02T12:50:49.457Z,16.82
2022-10-02T12:51:49.446Z,16.85
2022-10-02T12:52:49.411Z,16.87
2022-10-02T12:53:49.371Z,16.88
2022-10-02T12:54:49.409Z,16.89
2022-10-02T12:55:49.345Z,16.91
2022-10-02T12:56:49.864Z,16.94
2022-10-02T12:57:50.092Z,16.99
2022-10-02T12:58:49.311Z,17.05
2022-10-02T12:59:49.306Z,17.10
2022-10-02T13:00:49.341Z,17.15
2022-10-02T13:01:49.321Z,17.20
2022-10-02T13:03:00.838Z,17.25
2022-10-02T13:05:00.334Z,18.43
2022-10-02T13:06:00.722Z,17.99
2022-10-02T13:07:00.712Z,17.70
2022-10-02T13:08:00.714Z,17.51
2022-10-02T13:09:00.680Z,17.39
2022-10-02T13:10:00.684Z,17.30
2022-10-02T13:11:00.661Z,17.24
2022-10-02T13:12:00.654Z,17.18
2022-10-02T13:13:00.637Z,17.13
2022-10-02T13:14:00.613Z,17.09
2022-10-02T13:15:00.606Z,17.05
2022-10-02T13:16:00.593Z,17.01
2022-10-02T13:17:00.631Z,16.97
2022-10-02T13:18:00.560Z,16.93
2022-10-02T13:19:00.556Z,16.90
2022-10-02T13:20:00.536Z,16.87
2022-10-02T13:21:00.531Z,16.84
2022-10-02T13:22:00.509Z,16.80
2022-10-02T13:23:00.505Z,16.77
2022-10-02T13:24:00.540Z,16.74
2022-10-02T13:25:00.481Z,16.71
2022-10-02T13:26:00.475Z,16.68
2022-10-02T13:27:00.449Z,16.66
2022-10-02T13:28:00.465Z,16.63
2022-10-02T13:29:00.435Z,16.61
2022-10-02T13:30:00.408Z,16.60
2022-10-02T13:31:00.407Z,16.57
2022-10-02T13:32:00.399Z,16.55
2022-10-02T13:33:00.370Z,16.53
2022-10-02T13:34:00.346Z,16.50
2022-10-02T13:35:00.337Z,16.47
2022-10-02T13:36:00.325Z,16.45
2022-10-02T13:37:00.331Z,16.43
2022-10-02T13:38:00.303Z,16.41
2022-10-02T13:39:00.301Z,16.38
2022-10-02T13:40:00.272Z,16.34
2022-10-02T13:41:00.279Z,16.28
2022-10-02T13:42:00.269Z,16.19
2022-10-02T13:43:00.246Z,16.10
2022-10-02T13:44:00.215Z,15.99
2022-10-02T13:45:00.244Z,15.88
2022-10-02T13:46:00.305Z,15.77